Time;durP1;ratioP1;P1;durP2;ratioP2;P2;SDS_P1;SDS_P2;PMS_P1;PMS_P2;Temp;Humidity;BMP_temperature;BMP_pressure;BME280_temperature;BME280_humidity;BME280_pressure;Samples;Min_cycle;Max_cycle;Signal;HPM_P1;HPM_P2
2023/06/28 00:01:21;;;;;;;3.73;2.13;;;;;;;25.21;59.60;98556.47;6247355;23;20181;-87
2023/06/28 00:03:47;;;;;;;3.60;2.27;;;;;;;25.18;60.81;98564.91;6247387;23;20237;-86
2023/06/28 00:06:14;;;;;;;7.73;2.60;;;;;;;25.08;61.77;98568.91;6247741;23;20153;-87
2023/06/28 00:08:41;;;;;;;5.27;2.63;;;;;;;;;;6247446;23;20145;-86
2023/06/28 00:11:08;;;;;;;6.13;2.57;;;;;;;24.89;61.96;98565.75;6247981;23;20156;-86
2023/06/28 00:13:35;;;;;;;5.43;2.93;;;;;;;24.87;61.46;98567.78;6222350;23;20251;-86
2023/06/28 00:16:02;;;;;;;5.60;2.40;;;;;;;24.94;61.20;98566.03;6220769;23;20183;-86
2023/06/28 00:18:30;;;;;;;4.93;2.20;;;;;;;;;;6220615;23;20585;-86
2023/06/28 00:20:56;;;;;;;9.90;2.30;;;;;;;24.89;61.42;98560.41;6220699;23;20224;-87
2023/06/28 00:23:21;;;;;;;5.43;2.27;;;;;;;24.86;61.22;98559.94;6247328;23;20149;-86
2023/06/28 00:25:48;;;;;;;5.63;2.40;;;;;;;24.85;61.08;98561.78;6247234;23;20215;-86
2023/06/28 00:28:15;;;;;;;4.20;2.43;;;;;;;24.96;60.62;98572.03;6220769;23;20164;-86
2023/06/28 00:30:41;;;;;;;5.00;2.23;;;;;;;25.01;60.65;98563.44;6220970;23;20240;-86
2023/06/28 00:33:06;;;;;;;8.27;2.77;;;;;;;24.97;61.00;98567.50;6247165;23;20187;-86
2023/06/28 00:35:32;;;;;;;6.07;2.50;;;;;;;24.83;61.97;98561.13;6247209;23;20172;-87
2023/06/28 00:37:57;;;;;;;5.53;2.23;;;;;;;24.85;61.81;98567.13;6247612;23;20645;-86
2023/06/28 00:40:24;;;;;;;5.27;2.80;;;;;;;24.87;62.25;98565.09;6247419;23;20150;-87
2023/06/28 00:42:49;;;;;;;3.53;2.07;;;;;;;24.82;61.95;98556.78;6220478;23;20588;-87
2023/06/28 00:45:16;;;;;;;5.73;2.67;;;;;;;24.82;61.85;98554.09;6247071;23;20145;-87
2023/06/28 00:47:42;;;;;;;5.37;2.60;;;;;;;24.85;61.19;98558.25;6247221;23;20160;-87
2023/06/28 00:50:10;;;;;;;5.33;2.97;;;;;;;24.86;60.58;98559.94;6247090;23;20153;-87
2023/06/28 00:52:35;;;;;;;5.13;2.40;;;;;;;24.77;60.70;98556.47;6247399;23;20217;-87
2023/06/28 00:55:03;;;;;;;4.33;2.33;;;;;;;24.73;60.48;98555.19;6246858;23;20184;-87
2023/06/28 00:57:29;;;;;;;6.60;2.80;;;;;;;24.70;60.52;98552.88;6247317;23;20482;-87
2023/06/28 00:59:57;;;;;;;4.53;2.53;;;;;;;24.67;60.53;98555.91;6220893;23;20562;-87
2023/06/28 01:02:25;;;;;;;5.10;2.60;;;;;;;24.63;60.30;98559.16;6246866;23;20484;-86
2023/06/28 01:04:57;;;;;;;6.57;2.70;;;;;;;24.56;61.03;98567.06;6246803;23;20153;-86
2023/06/28 01:07:28;;;;;;;6.40;2.57;;;;;;;24.52;61.28;98563.09;6247302;23;20130;-86
2023/06/28 01:09:57;;;;;;;4.33;2.13;;;;;;;24.45;61.48;98562.16;6246708;23;20271;-86
2023/06/28 01:12:25;;;;;;;4.87;2.50;;;;;;;24.40;61.81;98554.66;6246868;23;20141;-85
2023/06/28 01:14:52;;;;;;;4.87;2.67;;;;;;;24.39;61.90;98562.91;6220404;23;20600;-86
2023/06/28 01:17:19;;;;;;;4.93;2.50;;;;;;;24.34;61.93;98560.75;6246883;23;20168;-86
2023/06/28 01:19:45;;;;;;;5.40;2.47;;;;;;;24.22;62.50;98546.13;6220330;23;20149;-85
2023/06/28 01:22:13;;;;;;;4.77;2.53;;;;;;;24.14;62.93;98546.19;6220305;23;20200;-86
2023/06/28 01:24:38;;;;;;;6.53;2.57;;;;;;;24.15;62.56;98547.88;6220354;23;20195;-86
2023/06/28 01:27:07;;;;;;;4.50;2.50;;;;;;;24.18;62.67;98554.72;6246962;23;20145;-85
2023/06/28 01:29:33;;;;;;;8.17;2.80;;;;;;;24.13;62.84;98555.28;6246905;23;20246;-85
2023/06/28 01:32:04;;;;;;;8.07;3.50;;;;;;;24.01;63.70;98555.81;6246549;23;20156;-86
2023/06/28 01:34:29;;;;;;;4.60;2.70;;;;;;;24.02;63.19;98560.16;6246764;23;20144;-86
2023/06/28 01:36:59;;;;;;;5.77;2.57;;;;;;;23.96;63.59;98560.88;6220081;23;20244;-86
2023/06/28 01:39:25;;;;;;;4.70;2.60;;;;;;;23.91;63.81;98560.59;6246579;23;20620;-86
2023/06/28 01:41:52;;;;;;;9.17;3.27;;;;;;;23.90;63.63;98561.63;6220656;23;20188;-86
2023/06/28 01:44:19;;;;;;;4.23;2.40;;;;;;;23.84;64.04;98561.31;6246587;23;20228;-86
2023/06/28 01:46:47;;;;;;;7.43;2.87;;;;;;;23.78;64.04;98562.03;6246541;23;20149;-86
2023/06/28 01:49:13;;;;;;;7.27;2.80;;;;;;;23.75;64.45;98564.22;6246423;23;20145;-86
2023/06/28 01:51:39;;;;;;;4.50;2.60;;;;;;;23.75;64.75;98553.50;6246518;23;20145;-86
2023/06/28 01:54:05;;;;;;;4.77;2.50;;;;;;;23.69;65.16;98554.19;6246255;23;20164;-85
2023/06/28 01:56:31;;;;;;;7.60;2.60;;;;;;;23.68;65.04;98560.59;6246435;23;20646;-86
2023/06/28 01:58:58;;;;;;;4.20;2.23;;;;;;;23.64;65.25;98552.06;6246415;23;20159;-86
2023/06/28 02:01:25;;;;;;;4.67;2.37;;;;;;;23.69;64.78;98554.19;6246980;23;20173;-86
2023/06/28 02:03:50;;;;;;;6.37;3.23;;;;;;;23.68;64.38;98553.41;6219883;23;20179;-86
2023/06/28 02:06:16;;;;;;;8.37;3.40;;;;;;;23.58;64.87;98547.44;6246297;23;20573;-86
2023/06/28 02:08:41;;;;;;;7.23;2.70;;;;;;;23.51;65.25;98551.81;6246644;23;20177;-87
2023/06/28 02:11:07;;;;;;;7.17;3.20;;;;;;;23.49;65.23;98553.00;6219683;23;20169;-86
2023/06/28 02:13:34;;;;;;;8.57;3.57;;;;;;;23.40;65.47;98548.72;6219793;23;20164;-87
2023/06/28 02:16:02;;;;;;;5.33;3.17;;;;;;;23.35;64.95;98546.53;6220185;23;20153;-87
2023/06/28 02:18:31;;;;;;;6.23;3.30;;;;;;;23.36;65.20;98553.53;6220114;23;20616;-87
2023/06/28 02:20:56;;;;;;;6.10;2.80;;;;;;;23.41;65.10;98556.56;6219676;23;20231;-87
2023/06/28 02:23:22;;;;;;;6.50;2.53;;;;;;;23.39;65.07;98547.88;6246388;23;20145;-87
2023/06/28 02:25:48;;;;;;;5.80;3.20;;;;;;;23.44;64.39;98544.69;6219760;23;20498;-86
2023/06/28 02:28:14;;;;;;;4.80;2.53;;;;;;;23.46;63.90;98545.31;6246146;23;20565;-86
2023/06/28 02:30:41;;;;;;;7.33;3.00;;;;;;;23.53;62.65;98552.47;6246392;23;20203;-87
2023/06/28 02:33:07;;;;;;;4.73;2.30;;;;;;;23.42;63.62;98550.22;6246125;23;20149;-87
2023/06/28 02:35:33;;;;;;;4.73;3.07;;;;;;;23.23;64.53;98555.94;6246113;23;20461;-87
2023/06/28 02:37:58;;;;;;;5.63;2.80;;;;;;;23.19;64.49;98549.31;6220291;23;20633;-88
2023/06/28 02:40:27;;;;;;;5.27;2.40;;;;;;;23.17;64.34;98564.66;6245985;23;20149;-87
2023/06/28 02:42:52;;;;;;;5.37;2.50;;;;;;;23.19;64.11;98563.47;6219234;23;20195;-86
2023/06/28 02:45:19;;;;;;;4.33;2.17;;;;;;;23.21;63.69;98574.03;6246710;23;20153;-86
2023/06/28 02:47:45;;;;;;;6.23;2.33;;;;;;;23.04;64.73;98577.75;6246036;23;20451;-86
2023/06/28 02:50:11;;;;;;;4.87;2.77;;;;;;;22.92;64.65;98569.28;6245984;23;20232;-86
2023/06/28 02:52:36;;;;;;;5.63;3.23;;;;;;;22.86;64.77;98566.44;6245829;23;20175;-86
2023/06/28 02:55:02;;;;;;;6.53;2.97;;;;;;;22.83;65.47;98562.28;6245909;23;20187;-86
2023/06/28 02:57:27;;;;;;;4.97;2.53;;;;;;;22.77;64.98;98563.00;6219343;23;20160;-86
2023/06/28 02:59:54;;;;;;;5.97;2.50;;;;;;;22.72;65.45;98564.50;6245944;23;20156;-86
2023/06/28 03:02:20;;;;;;;4.57;2.40;;;;;;;22.63;65.85;98569.88;6219334;23;20176;-87
2023/06/28 03:04:46;;;;;;;7.20;2.40;;;;;;;22.51;66.61;98570.38;6219532;23;20148;-86
2023/06/28 03:07:16;;;;;;;4.73;2.53;;;;;;;22.48;66.80;98579.53;6219477;23;20240;-86
2023/06/28 03:09:42;;;;;;;6.87;2.43;;;;;;;22.51;67.06;98573.03;6246379;23;20156;-86
2023/06/28 03:12:08;;;;;;;4.67;2.50;;;;;;;22.62;66.75;98565.50;6219534;23;20146;-86
2023/06/28 03:14:34;;;;;;;5.90;3.03;;;;;;;22.74;66.59;98567.84;6219452;23;20568;-86
2023/06/28 03:17:01;;;;;;;5.77;2.73;;;;;;;22.80;66.33;98564.50;6246185;23;20630;-86
2023/06/28 03:19:28;;;;;;;6.27;2.40;;;;;;;22.82;66.30;98565.13;6245639;23;20160;-86
2023/06/28 03:21:53;;;;;;;10.07;3.03;;;;;;;22.86;66.06;98569.13;6246074;23;20177;-86
2023/06/28 03:24:19;;;;;;;5.60;3.40;;;;;;;22.91;65.75;98567.59;6245844;23;20554;-87
2023/06/28 03:26:44;;;;;;;4.87;2.50;;;;;;;22.92;66.09;98577.31;6245808;23;20480;-87
2023/06/28 03:29:11;;;;;;;5.40;3.00;;;;;;;22.96;65.63;98572.44;6219308;23;20180;-87
2023/06/28 03:31:36;;;;;;;9.37;3.40;;;;;;;23.01;65.42;98580.75;6219412;23;20611;-87
2023/06/28 03:34:02;;;;;;;7.20;3.33;;;;;;;23.05;65.14;98590.13;6245910;23;20149;-87
2023/06/28 03:36:29;;;;;;;6.00;3.87;;;;;;;23.11;64.81;98592.91;6245769;23;20187;-87
2023/06/28 03:38:55;;;;;;;6.27;3.00;;;;;;;23.14;64.70;98589.06;6219304;23;20153;-87
2023/06/28 03:41:20;;;;;;;6.40;3.80;;;;;;;23.07;65.12;98598.78;6219589;23;20185;-87
2023/06/28 03:43:47;;;;;;;7.80;3.03;;;;;;;23.12;64.63;98596.44;6245654;23;20160;-87
2023/06/28 03:46:12;;;;;;;5.03;3.00;;;;;;;23.19;64.07;98605.47;6219579;23;20177;-87
2023/06/28 03:48:38;;;;;;;6.80;3.00;;;;;;;23.16;63.95;98605.78;6219313;23;20160;-87
2023/06/28 03:51:04;;;;;;;10.43;4.03;;;;;;;23.18;64.66;98614.47;6219156;23;20156;-87
2023/06/28 03:53:29;;;;;;;7.77;3.80;;;;;;;23.15;64.50;98604.13;6247150;23;20230;-86
2023/06/28 03:55:54;;;;;;;7.80;3.17;;;;;;;23.07;64.96;98598.78;6248389;23;20460;-87
2023/06/28 03:58:21;;;;;;;8.03;3.40;;;;;;;23.00;65.58;98590.66;6247503;23;20458;-86
2023/06/28 04:00:46;;;;;;;5.90;3.03;;;;;;;23.09;65.50;98591.44;6247382;23;20548;-86
2023/06/28 04:03:12;;;;;;;5.73;3.17;;;;;;;23.13;65.92;98595.44;6247866;23;20246;-86
2023/06/28 04:05:37;;;;;;;7.50;4.10;;;;;;;23.17;65.59;98597.59;6247532;23;20149;-86
2023/06/28 04:08:03;;;;;;;6.03;3.10;;;;;;;23.17;65.36;98597.59;6221437;23;20191;-87
2023/06/28 04:10:30;;;;;;;6.60;3.17;;;;;;;23.17;65.16;98597.59;6247388;23;20145;-86
2023/06/28 04:12:55;;;;;;;6.93;3.50;;;;;;;23.21;65.38;98603.44;6247473;23;20465;-86
2023/06/28 04:15:22;;;;;;;6.97;4.20;;;;;;;23.31;65.16;98592.53;6247280;23;20160;-86
2023/06/28 04:17:47;;;;;;;5.53;3.27;;;;;;;23.33;65.64;98596.69;6221351;23;20149;-86
2023/06/28 04:20:14;;;;;;;8.37;3.90;;;;;;;23.41;65.64;98588.66;6247388;23;20160;-86
2023/06/28 04:22:41;;;;;;;7.20;4.27;;;;;;;23.45;65.56;98590.00;6221105;23;20509;-86
2023/06/28 04:25:07;;;;;;;8.27;4.53;;;;;;;23.47;65.93;98587.97;6220878;23;20153;-86
2023/06/28 04:27:34;;;;;;;9.40;4.30;;;;;;;23.64;65.54;98578.81;6247312;23;20145;-86
2023/06/28 04:30:01;;;;;;;9.90;4.43;;;;;;;23.76;65.38;98584.63;6247686;23;20569;-86
2023/06/28 04:32:28;;;;;;;11.53;5.03;;;;;;;23.85;65.23;98580.84;6247981;23;20176;-86
2023/06/28 04:34:58;;;;;;;10.00;5.20;;;;;;;23.89;65.04;98584.03;6220591;23;20153;-86
2023/06/28 04:37:31;;;;;;;10.43;4.67;;;;;;;23.98;65.38;98591.00;6247961;23;20137;-86
2023/06/28 04:40:03;;;;;;;7.57;4.17;;;;;;;23.99;65.23;98600.69;6220861;23;20155;-86
2023/06/28 04:42:30;;;;;;;7.43;4.70;;;;;;;24.04;65.46;98592.94;6247430;23;20259;-85
2023/06/28 04:45:00;;;;;;;15.00;4.87;;;;;;;24.16;64.99;98595.06;6247173;23;20215;-86
2023/06/28 04:47:27;;;;;;;9.20;4.50;;;;;;;24.17;65.96;98590.53;6220511;23;20153;-85
2023/06/28 04:49:55;;;;;;;6.17;4.00;;;;;;;24.17;66.34;98595.88;6247109;23;20155;-86
2023/06/28 04:52:23;;;;;;;6.53;3.93;;;;;;;24.23;67.15;98597.84;6247277;23;20145;-86
2023/06/28 04:54:50;;;;;;;8.90;4.13;;;;;;;24.30;66.80;98596.13;6215350;23;20197;-86
2023/06/28 04:57:17;;;;;;;6.27;3.93;;;;;;;24.42;66.11;98608.88;6239977;23;20149;-86
2023/06/28 04:59:43;;;;;;;7.17;3.67;;;;;;;24.70;64.85;98605.63;6247145;23;20149;-86
2023/06/28 05:02:10;;;;;;;10.07;4.23;;;;;;;24.87;63.46;98599.94;6246895;23;20262;-86
2023/06/28 05:04:40;;;;;;;9.50;3.53;;;;;;;24.89;63.54;98602.47;6247347;23;20149;-86
2023/06/28 05:07:09;;;;;;;5.93;3.67;;;;;;;24.99;63.84;98598.50;6246863;23;20162;-86
2023/06/28 05:09:36;;;;;;;5.37;3.40;;;;;;;25.19;62.77;98604.13;6220412;23;20153;-87
2023/06/28 05:12:04;;;;;;;6.97;3.67;;;;;;;25.31;61.75;98610.69;6220244;23;20153;-86
2023/06/28 05:14:30;;;;;;;6.57;3.70;;;;;;;25.41;61.93;98613.91;6220370;23;20149;-87
2023/06/28 05:16:58;;;;;;;5.93;3.60;;;;;;;25.76;60.65;98616.84;6247060;23;20145;-88
2023/06/28 05:19:24;;;;;;;6.73;3.60;;;;;;;26.11;59.41;98616.81;6246890;23;20145;-87
2023/06/28 05:21:50;;;;;;;6.17;2.93;;;;;;;26.40;57.06;98613.19;6246867;23;20172;-87
2023/06/28 05:24:16;;;;;;;8.57;4.23;;;;;;;26.62;56.13;98608.59;6220357;23;20149;-86
2023/06/28 05:26:41;;;;;;;8.53;4.17;;;;;;;26.76;55.54;98618.41;6246740;23;20163;-87
2023/06/28 05:29:07;;;;;;;8.57;3.60;;;;;;;26.78;54.66;98613.72;6219048;23;20232;-87
2023/06/28 05:31:32;;;;;;;5.97;3.40;;;;;;;26.77;55.07;98612.06;6245990;23;20563;-86
2023/06/28 05:33:58;;;;;;;8.77;3.53;;;;;;;26.84;54.71;98613.75;6219062;23;20165;-88
2023/06/28 05:36:23;;;;;;;8.90;3.53;;;;;;;26.82;54.67;98618.50;6245475;23;20156;-87
2023/06/28 05:38:49;;;;;;;5.30;2.90;;;;;;;26.96;56.45;98619.44;6219421;23;20180;-87
2023/06/28 05:41:16;;;;;;;7.50;3.63;;;;;;;27.04;55.09;98619.28;6245384;23;20536;-87
2023/06/28 05:43:43;;;;;;;6.67;3.20;;;;;;;27.20;55.66;98613.56;6220078;23;20212;-87
2023/06/28 05:46:09;;;;;;;6.27;3.60;;;;;;;27.40;55.39;98622.63;6246832;23;20153;-86
2023/06/28 05:48:34;;;;;;;7.70;3.63;;;;;;;27.50;54.75;98618.72;6220076;23;20480;-87
2023/06/28 05:51:00;;;;;;;6.35;3.70;;;;;;;27.71;56.28;98621.28;6246857;23;20473;-88
2023/06/28 05:53:26;;;;;;;10.82;3.63;;;;;;;27.78;55.08;98622.13;6246670;23;20149;-88
2023/06/28 05:55:51;;;;;;;6.38;3.33;;;;;;;27.87;53.39;98615.53;6246481;23;20207;-88
2023/06/28 05:58:18;;;;;;;5.95;3.05;;;;;;;27.99;53.02;98613.91;6220202;23;20529;-88
2023/06/28 06:00:44;;;;;;;5.95;3.35;;;;;;;27.91;52.05;98612.22;6219806;23;20479;-88
2023/06/28 06:03:09;;;;;;;4.65;2.92;;;;;;;27.92;52.28;98613.91;6219917;23;20195;-89
2023/06/28 06:05:37;;;;;;;5.50;3.40;;;;;;;27.97;51.95;98615.97;6219610;23;20153;-89
2023/06/28 06:08:02;;;;;;;5.00;2.85;;;;;;;27.94;52.09;98613.69;6246246;23;20149;-87
2023/06/28 06:10:28;;;;;;;9.52;3.45;;;;;;;27.94;51.47;98621.75;6246227;23;20596;-88
2023/06/28 06:12:54;;;;;;;5.28;3.47;;;;;;;28.07;51.10;98611.03;6219843;23;20157;-88
2023/06/28 06:15:20;;;;;;;7.95;4.22;;;;;;;28.08;50.12;98612.72;6246015;23;20168;-89
2023/06/28 06:17:46;;;;;;;4.97;2.85;;;;;;;28.06;52.21;98614.78;6219768;23;20565;-89
2023/06/28 06:20:15;;;;;;;4.50;2.78;;;;;;;28.16;50.92;98609.84;6246507;23;20583;-89
2023/06/28 06:22:40;;;;;;;6.28;3.33;;;;;;;28.03;49.53;98610.66;6246027;23;20569;-89
2023/06/28 06:25:06;;;;;;;5.88;3.35;;;;;;;28.18;50.51;98607.75;6246196;23;20160;-89
2023/06/28 06:27:32;;;;;;;6.63;3.28;;;;;;;28.19;50.56;98612.13;6246235;23;20186;-89
2023/06/28 06:29:57;;;;;;;5.75;3.47;;;;;;;28.25;49.84;98611.28;6246102;23;20145;-89
2023/06/28 06:32:23;;;;;;;6.25;3.42;;;;;;;28.46;49.13;98611.09;6246130;23;20156;-88
2023/06/28 06:34:49;;;;;;;5.95;3.35;;;;;;;28.74;50.57;98610.09;6246387;23;20526;-90
2023/06/28 06:37:15;;;;;;;6.85;3.60;;;;;;;29.01;49.74;98598.25;6246048;23;20157;-88
2023/06/28 06:39:41;;;;;;;6.10;3.10;;;;;;;29.20;48.10;98606.31;6246431;23;20219;-89
2023/06/28 06:42:07;;;;;;;6.20;3.03;;;;;;;29.36;48.42;98601.47;6246145;23;20188;-89
2023/06/28 06:44:32;;;;;;;5.32;3.00;;;;;;;29.38;47.30;98604.78;6246331;23;20240;-89
2023/06/28 06:46:58;;;;;;;10.35;3.58;;;;;;;29.13;47.43;98601.94;6219554;23;20153;-89
2023/06/28 06:49:23;;;;;;;7.20;3.42;;;;;;;29.20;47.67;98603.59;6245918;23;20158;-90
2023/06/28 06:51:49;;;;;;;8.25;3.92;;;;;;;29.09;47.23;98606.06;6245772;23;20155;-89
2023/06/28 06:54:14;;;;;;;7.97;3.78;;;;;;;29.00;48.06;98607.34;6245750;23;20193;-89
2023/06/28 06:56:40;;;;;;;8.02;3.45;;;;;;;29.13;46.47;98607.34;6245753;23;20653;-90
2023/06/28 06:59:05;;;;;;;7.32;3.60;;;;;;;29.45;46.90;98600.19;6219349;23;20193;-89
2023/06/28 07:01:32;;;;;;;11.77;3.15;;;;;;;29.77;45.24;98599.19;6246194;23;20242;-89
2023/06/28 07:03:58;;;;;;;5.80;3.38;;;;;;;29.89;44.79;98600.22;6246026;23;20158;-91
2023/06/28 07:06:23;;;;;;;6.65;3.72;;;;;;;29.93;47.16;98596.03;6246514;23;20145;-90
2023/06/28 07:08:49;;;;;;;6.10;3.20;;;;;;;30.26;45.68;98593.97;6245773;23;20149;-90
2023/06/28 07:11:14;;;;;;;6.45;3.13;;;;;;;30.38;43.65;98586.81;6246235;23;20141;-89
2023/06/28 07:13:40;;;;;;;6.88;3.78;;;;;;;30.48;43.63;98593.63;6246307;23;20145;-89
2023/06/28 07:16:05;;;;;;;7.30;3.55;;;;;;;30.62;43.92;98577.03;6245731;23;20637;-90
2023/06/28 07:18:31;;;;;;;5.63;3.40;;;;;;;30.85;42.98;98579.94;6219422;23;20168;-88
2023/06/28 07:20:56;;;;;;;6.78;3.50;;;;;;;30.83;43.45;98584.75;6245708;23;20149;-90
2023/06/28 07:23:22;;;;;;;6.38;3.80;;;;;;;30.91;42.87;98586.38;6245489;23;20295;-91
2023/06/28 07:25:47;;;;;;;9.70;3.92;;;;;;;31.01;42.02;98590.22;6219484;23;20153;-90
2023/06/28 07:28:15;;;;;;;8.45;3.97;;;;;;;31.12;42.90;98571.56;6247331;23;20159;-90
2023/06/28 07:30:54;;;;;;;5.22;3.38;;;;;;;31.29;42.38;98575.34;6248227;23;20215;-89
2023/06/28 07:33:22;;;;;;;8.80;3.67;;;;;;;31.68;43.05;98574.03;6221291;23;20157;-89
2023/06/28 07:35:48;;;;;;;7.90;4.22;;;;;;;31.96;40.12;98576.97;6247745;23;20156;-90
2023/06/28 07:38:19;;;;;;;5.97;3.53;;;;;;;32.18;41.42;98562.69;6221252;23;20153;-89
2023/06/28 07:40:48;;;;;;;4.82;3.10;;;;;;;32.33;39.37;98573.09;6247691;23;20477;-89
2023/06/28 07:43:17;;;;;;;5.88;3.15;;;;;;;32.60;39.45;98568.09;6247795;23;20153;-91
2023/06/28 07:45:42;;;;;;;4.55;2.88;;;;;;;32.63;39.78;98560.28;6221696;23;20161;-89
2023/06/28 07:48:08;;;;;;;7.10;3.63;;;;;;;32.68;38.73;98562.28;6221228;23;20604;-89
2023/06/28 07:50:34;;;;;;;7.93;3.13;;;;;;;32.71;38.34;98567.25;6247494;23;20145;-91
2023/06/28 07:53:00;;;;;;;6.78;3.75;;;;;;;32.91;39.37;98573.16;6221064;23;20187;-90
2023/06/28 07:55:27;;;;;;;6.90;4.15;;;;;;;32.73;38.48;98560.53;6221228;23;20165;-92
2023/06/28 07:57:54;;;;;;;8.02;3.78;;;;;;;32.56;38.99;98562.31;6221128;23;20581;-90
2023/06/28 08:00:20;;;;;;;6.18;3.38;;;;;;;32.56;38.14;98558.75;6247661;23;20227;-89
2023/06/28 08:02:45;;;;;;;6.80;3.67;;;;;;;32.80;38.79;98561.25;6247884;23;20591;-91
2023/06/28 08:05:10;;;;;;;6.32;3.60;;;;;;;32.98;39.21;98557.56;6247742;23;20160;-90
2023/06/28 08:07:36;;;;;;;7.22;4.05;;;;;;;33.12;38.86;98559.00;6247850;23;20145;-91
2023/06/28 08:10:02;;;;;;;5.95;3.45;;;;;;;33.34;38.44;98559.19;6220949;23;20153;-90
2023/06/28 08:12:27;;;;;;;9.48;3.95;;;;;;;33.54;40.78;98567.75;6220851;23;20149;-90
2023/06/28 08:14:53;;;;;;;8.00;4.57;;;;;;;33.68;39.59;98562.88;6221052;23;20157;-92
2023/06/28 08:17:20;;;;;;;5.65;3.25;;;;;;;33.71;37.19;98556.94;6221627;23;20175;-92
2023/06/28 08:19:45;;;;;;;6.80;3.78;;;;;;;33.67;36.56;98562.06;6221154;23;20165;-92
2023/06/28 08:22:12;;;;;;;5.47;3.33;;;;;;;33.91;37.67;98563.59;6221370;23;20600;-91
2023/06/28 08:24:38;;;;;;;8.13;3.95;;;;;;;34.04;37.47;98551.59;6247668;23;20183;-91
2023/06/28 08:27:05;;;;;;;7.22;4.20;;;;;;;33.92;36.62;98559.81;6247591;23;20513;-91
2023/06/28 08:29:30;;;;;;;5.10;3.38;;;;;;;33.94;38.10;98549.50;6247248;23;20145;-91
2023/06/28 08:31:55;;;;;;;6.00;3.45;;;;;;;34.00;39.65;98543.09;6246973;23;20148;-91
2023/06/28 08:34:21;;;;;;;9.13;3.75;;;;;;;34.23;37.79;98544.88;6247717;23;20179;-91
2023/06/28 08:36:46;;;;;;;8.20;4.05;;;;;;;34.43;36.47;98544.41;6248022;23;20150;-92
2023/06/28 08:39:12;;;;;;;6.22;3.28;;;;;;;34.57;35.59;98535.66;6247168;23;20145;-92
2023/06/28 08:41:38;;;;;;;5.10;3.30;;;;;;;34.78;34.60;98544.13;6220864;23;20177;-92
2023/06/28 08:44:06;;;;;;;6.82;4.05;;;;;;;34.89;35.43;98545.94;6220796;23;20521;-92
2023/06/28 08:46:31;;;;;;;8.85;3.90;;;;;;;34.67;36.84;98534.97;6220772;23;20157;-91
2023/06/28 08:48:58;;;;;;;6.00;3.80;;;;;;;34.79;35.08;98540.34;6221948;23;20153;-92
2023/06/28 08:51:25;;;;;;;6.15;3.40;;;;;;;34.91;36.94;98538.31;6220982;23;20572;-92
2023/06/28 08:53:52;;;;;;;5.88;3.22;;;;;;;34.74;36.34;98541.09;6220476;23;20174;-90
2023/06/28 08:56:17;;;;;;;5.93;3.35;;;;;;;34.74;34.93;98529.38;6246979;23;20156;-91
2023/06/28 08:58:47;;;;;;;6.05;3.58;;;;;;;35.00;36.80;98528.66;6220474;23;20149;-91
2023/06/28 09:01:13;;;;;;;5.10;3.22;;;;;;;35.38;34.53;98519.66;6247015;23;20180;-91
2023/06/28 09:03:42;;;;;;;5.72;3.50;;;;;;;35.36;36.15;98522.59;6247939;23;20150;-91
2023/06/28 09:06:08;;;;;;;6.07;3.60;;;;;;;35.57;34.73;98521.78;6246857;23;20149;-91
2023/06/28 09:08:35;;;;;;;6.72;3.97;;;;;;;35.60;35.60;98512.28;6220947;23;20150;-91
2023/06/28 09:11:01;;;;;;;5.53;3.35;;;;;;;35.68;35.87;98509.09;6220478;23;20653;-92
2023/06/28 09:13:28;;;;;;;5.57;3.47;;;;;;;35.59;33.61;98514.19;6246879;23;20149;-91
2023/06/28 09:15:54;;;;;;;6.55;3.85;;;;;;;35.73;37.06;98507.25;6220385;23;20149;-90
2023/06/28 09:18:20;;;;;;;6.00;3.65;;;;;;;35.94;33.81;98502.81;6220386;23;20172;-92
2023/06/28 09:20:50;;;;;;;6.57;3.67;;;;;;;36.03;35.54;98508.66;6246793;23;20468;-91
2023/06/28 09:23:26;;;;;;;6.85;3.45;;;;;;;36.21;34.74;98502.78;6246761;23;20177;-94
2023/06/28 09:25:52;;;;;;;5.22;3.20;;;;;;;36.05;35.75;98511.94;6221690;23;20222;-91
2023/06/28 09:28:19;;;;;;;7.30;3.63;;;;;;;36.22;35.33;98498.97;6246792;23;20224;-92
2023/06/28 09:30:51;;;;;;;4.97;2.90;;;;;;;36.29;34.42;98497.69;6246843;23;20238;-91
2023/06/28 09:33:18;;;;;;;6.43;3.50;;;;;;;36.22;34.66;98497.06;6247137;23;20134;-92
2023/06/28 09:35:44;;;;;;;5.13;3.00;;;;;;;36.14;34.74;98497.53;6246664;23;20582;-90
2023/06/28 09:38:10;;;;;;;5.30;3.00;;;;;;;36.37;36.63;98490.91;6220190;23;20240;-91
2023/06/28 09:40:35;;;;;;;6.63;3.90;;;;;;;36.60;34.71;98485.09;6246701;23;20149;-91
2023/06/28 09:43:02;;;;;;;6.90;3.17;;;;;;;36.74;33.34;98486.25;6246830;23;20169;-91
2023/06/28 09:45:30;;;;;;;4.80;2.97;;;;;;;36.67;34.14;98474.75;6246402;23;20145;-91
2023/06/28 09:48:03;;;;;;;5.72;3.38;;;;;;;36.75;32.04;98490.63;6246284;23;20634;-91
2023/06/28 09:50:39;;;;;;;4.47;2.55;;;;;;;36.83;34.49;98479.22;6246402;23;20133;-90
2023/06/28 09:53:08;;;;;;;4.78;3.00;;;;;;;36.73;33.62;98470.13;6246797;23;20215;-90
2023/06/28 09:55:33;;;;;;;4.40;2.72;;;;;;;36.76;32.59;98467.72;6246322;23;20213;-90
2023/06/28 09:58:00;;;;;;;4.60;2.70;;;;;;;36.88;34.08;98462.84;6246241;23;20152;-91
2023/06/28 10:00:28;;;;;;;7.80;3.60;;;;;;;37.05;32.33;98467.31;6246447;23;20149;-91
2023/06/28 10:02:56;;;;;;;6.15;2.90;;;;;;;37.04;33.00;98468.41;6246374;23;20498;-91
2023/06/28 10:05:22;;;;;;;5.68;3.25;;;;;;;36.94;32.46;98458.22;6244617;23;20638;-92
2023/06/28 10:07:49;;;;;;;4.82;3.30;;;;;;;36.94;32.37;98461.81;6217224;23;20577;-91
2023/06/28 10:10:16;;;;;;;4.13;2.70;;;;;;;37.11;33.64;98458.84;6245692;23;20152;-90
2023/06/28 10:12:42;;;;;;;4.93;3.08;;;;;;;37.31;32.07;98461.69;6246179;23;20179;-90
2023/06/28 10:15:20;;;;;;;12.00;6.35;;;;;;;37.38;31.11;98458.66;6245828;23;20165;-90
2023/06/28 10:17:46;;;;;;;6.55;3.10;;;;;;;37.22;32.09;98449.59;6246700;23;20430;-91
2023/06/28 10:20:12;;;;;;;4.30;2.75;;;;;;;37.24;30.79;98443.88;6219787;23;20573;-93
2023/06/28 10:22:39;;;;;;;5.32;3.10;;;;;;;36.92;32.50;98447.53;6246227;23;20237;-91
2023/06/28 10:25:05;;;;;;;6.82;2.88;;;;;;;37.04;32.80;98441.06;6246269;23;20157;-91
2023/06/28 10:27:33;;;;;;;6.45;4.03;;;;;;;37.08;31.59;98443.03;6219874;23;20258;-93
2023/06/28 10:30:00;;;;;;;5.25;3.20;;;;;;;37.13;32.31;98434.00;6246459;23;20185;-90
2023/06/28 10:32:25;;;;;;;6.95;3.75;;;;;;;37.36;33.09;98439.00;6246476;23;20199;-90
2023/06/28 10:34:52;;;;;;;4.72;2.95;;;;;;;37.50;33.37;98440.94;6246216;23;20149;-90
2023/06/28 10:37:21;;;;;;;6.05;3.25;;;;;;;37.66;30.98;98427.31;6246291;23;20152;-90
2023/06/28 10:39:49;;;;;;;7.15;3.47;;;;;;;37.58;31.61;98436.06;6219769;23;20153;-90
2023/06/28 10:42:15;;;;;;;7.25;3.10;;;;;;;37.59;32.82;98427.56;6246359;23;20185;-91
2023/06/28 10:44:54;;;;;;;5.80;3.13;;;;;;;37.22;30.89;98432.38;6246131;23;20146;-90
2023/06/28 10:47:20;;;;;;;8.05;3.63;;;;;;;37.39;32.05;98432.97;6246088;23;20141;-89
2023/06/28 10:50:14;;;;;;;4.43;2.80;;;;;;;37.55;32.79;98437.44;6245973;23;20151;-90
2023/06/28 10:52:47;;;;;;;4.97;3.08;;;;;;;37.60;31.02;98436.59;6231421;23;20222;-91
2023/06/28 10:55:18;;;;;;;6.78;3.33;;;;;;;37.77;30.42;98435.25;6245916;23;20165;-90
2023/06/28 10:57:43;;;;;;;5.40;3.15;;;;;;;37.96;30.88;98425.44;6246664;23;20458;-91
2023/06/28 11:00:40;;;;;;;5.63;3.25;;;;;;;38.00;30.91;98420.25;6245860;23;20145;-90
2023/06/28 11:03:07;;;;;;;5.75;3.15;;;;;;;38.05;30.16;98415.56;6246543;23;20169;-91
2023/06/28 11:05:44;;;;;;;5.47;3.25;;;;;;;37.93;33.47;98416.94;6245763;23;20184;-90
2023/06/28 11:08:14;;;;;;;5.47;3.30;;;;;;;38.02;31.88;98413.41;6242828;23;20140;-88
2023/06/28 11:11:01;;;;;;;6.10;2.92;;;;;;;38.08;29.54;98423.22;6244671;23;20179;-89
2023/06/28 11:13:50;;;;;;;6.55;3.30;;;;;;;38.34;30.24;98417.75;6244966;23;20167;-89
2023/06/28 11:16:24;;;;;;;5.80;3.28;;;;;;;38.23;29.93;98405.97;6219060;23;20141;-90
2023/06/28 11:18:51;;;;;;;5.65;3.42;;;;;;;38.22;30.90;98406.22;6245808;23;20149;-89
2023/06/28 11:21:22;;;;;;;5.78;3.13;;;;;;;38.31;29.19;98404.63;6245720;23;20250;-90
2023/06/28 11:23:48;;;;;;;4.93;3.03;;;;;;;38.48;28.56;98403.19;6246285;23;20164;-90
2023/06/28 11:26:31;;;;;;;6.88;3.38;;;;;;;38.39;29.10;98401.31;6246071;23;20146;-89
2023/06/28 11:28:57;;;;;;;8.02;3.33;;;;;;;38.11;29.08;98392.56;6246468;23;20203;-89
2023/06/28 11:31:38;;;;;;;6.20;3.25;;;;;;;38.06;29.09;98389.00;6245707;23;20149;-89
2023/06/28 11:34:04;;;;;;;4.32;3.05;;;;;;;38.20;29.66;98389.28;6246119;23;20147;-89